Accueil
METAR-TAF:

METAR-TAF

Aéroports :

Aéroport de Sion

Sion, Suisse

latitude: 46-13N, longitude: 007-20E, altitude: 482 m

Observation

Le bulletin a été fait il y a 12 minutes, à 21:50 UTC
Vent 4 kt de est, variant entre nord-est et est/sud-est
Température 2°C
Humidité 60%
Pression 1008 hPa
Visibilité 10 km ou plus
pas de nuages en-dessous de 1500 mètres et pas de cumulonimbus.

METAR: LSGS 202150Z AUTO 08004KT 040V120 CAVOK 02/M05 Q1008

Heure: 23:02 (22:02 UTC)

Prévision

Le bulletin a été fait il y a 7 heures et 37 minutes, à 14:25 UTC
Prévision valable du 20 à 15 UTC au 20 à 24 UTC
Vent 3 kt de direction variable
Visibilité 10 km ou plus
Quelques nuages à une hauteur de 9000 ft
Evoluant progressivement
du 20 à 18 UTC au 20 à 20 UTC
Visibilité 10 km ou plus
pas de nuages en-dessous de 1500 mètres et pas de cumulonimbus.

TAF: LSGS 201425Z 2015/2024 VRB03KT 9999 FEW090 BECMG 2018/2020 CAVOK

Observations et prévisions météorologiques de plus de 4000 aéroports (messages METAR et TAF).

Les stations disponibles sont représentées par des disques jaunes et rouges sur la carte.

Passer la souris dessus pour voir le nom de la station.

Cliquer dessus pour voir les observations et prévisions météorologiques.

Pour changer de carte: cliquez sur les boutons verts avec une croix noire pour zoomer, sur le bouton vert avec un tiret pour effectuer un zoom arrière, ou sur les flèches vertes pour les cartes adjacentes.


METAR-TAF: